Albany, Vermont
Current Conditions -  °F | °C
As of 10:15 AM on Thursday 23 Oct 2014 (Local Time) from KEFK Reporting Station
Light Rain Light Rain  
Wind Chill: 34°   Ceiling: 1100
Heat Index: 42°   Visibility: 10mi
Dew Point: 40°   Wind: 16mph
Humidity: 91%   Direction: 360°N
Pressure: 29.97"   Gusts: NA
Location:  44.73°N, 72.38°W
Report Text: KEFK 231415Z AUTO 36014KT 10SM -RA OVC011 06/04 A2997 RMK AO2 T00550042
Loading
Personal Weather Stations






























Interactive Weather Map
Tropical Storm Tracking
New forecast layout! Learn more

10-Day Weather Forecast

Advertisements
Track Severe Weather on mobile